DECPP EDLW-EDLW

Flight info

Callsign DECPP
Flight time N/A
Altitude
Route DCT
Aircraft SF20

Departure

Time 2026-04-30 19:19
Airport Dortmund Airport (EDLW)

Arrival

Time N/A
Airport Dortmund Airport (EDLW)
Time Latitude Longitude Altitude Speed Heading
2026-04-30 19:11 51.51217 7.60474 437 ft 0 kts 107°
2026-04-30 19:12 51.51216 7.60479 436 ft 2 kts 71°
2026-04-30 19:12 51.51215 7.60384 442 ft 23 kts 248°
2026-04-30 19:13 51.51217 7.60229 440 ft 15 kts 57°
2026-04-30 19:13 51.51327 7.60538 439 ft 17 kts 63°
2026-04-30 19:13 51.51392 7.60718 424 ft 20 kts 59°
2026-04-30 19:14 51.51455 7.60896 427 ft 18 kts 60°
2026-04-30 19:14 51.51519 7.61051 427 ft 15 kts 14°
2026-04-30 19:14 51.51570 7.60956 422 ft 19 kts 255°
2026-04-30 19:14 51.51531 7.60724 410 ft 21 kts 256°
2026-04-30 19:15 51.51528 7.60693 409 ft 0 kts 275°
2026-04-30 19:18 51.51592 7.60596 407 ft 10 kts 336°
2026-04-30 19:18 51.51615 7.60604 407 ft 0 kts 59°
2026-04-30 19:19 51.51618 7.60612 407 ft 15 kts 55°
2026-04-30 19:19 51.51919 7.61469 498 ft 141 kts 57°
2026-04-30 19:19 51.51115 7.64397 1067 ft 220 kts 159°
2026-04-30 19:20 51.49715 7.63689 1111 ft 224 kts 244°
2026-04-30 19:20 51.49589 7.61262 1272 ft 220 kts 275°
2026-04-30 19:20 51.48487 7.56609 1533 ft 229 kts 247°
2026-04-30 19:21 51.47692 7.55679 1586 ft 218 kts 68°
2026-04-30 19:21 51.47784 7.54990 1318 ft 237 kts 116°
2026-04-30 19:22 51.48494 7.55977 1153 ft 155 kts 258°
2026-04-30 19:22 51.48636 7.55397 1183 ft 156 kts 269°
2026-04-30 19:23 51.50326 7.56922 1052 ft 111 kts 55°
2026-04-30 19:24 51.50930 7.58676 724 ft 85 kts 53°
2026-04-30 19:24 51.51212 7.59469 625 ft 75 kts 51°
2026-04-30 19:24 51.51707 7.60869 413 ft 62 kts 52°
2026-04-30 19:25 51.52880 7.62532 751 ft 126 kts 333°
2026-04-30 19:26 51.53176 7.59973 1262 ft 151 kts 244°
2026-04-30 19:26 51.52132 7.56827 1165 ft 165 kts 249°
2026-04-30 19:26 51.52523 7.55830 1106 ft 150 kts 30°
2026-04-30 19:27 51.52046 7.58109 923 ft 139 kts 167°
2026-04-30 19:27 51.51162 7.59352 581 ft 96 kts 53°
2026-04-30 19:28 51.51461 7.60179 506 ft 81 kts 52°
2026-04-30 19:28 51.51981 7.61635 422 ft 85 kts 55°
2026-04-30 19:29 51.53253 7.62278 793 ft 163 kts 333°
2026-04-30 19:29 51.53271 7.61679 1078 ft 185 kts 236°
2026-04-30 19:30 51.53563 7.59364 1197 ft 138 kts 12°
2026-04-30 19:30 51.53010 7.59556 1184 ft 200 kts 161°
2026-04-30 19:31 51.51646 7.55603 1157 ft 206 kts 254°
2026-04-30 19:31 51.51099 7.53529 1315 ft 202 kts 210°
2026-04-30 19:31 51.50192 7.52981 1245 ft 170 kts 335°
2026-04-30 19:32 51.50386 7.54433 1141 ft 201 kts 109°
2026-04-30 19:32 51.50194 7.56511 1054 ft 176 kts 65°
2026-04-30 19:32 51.50734 7.58135 823 ft 157 kts 56°
2026-04-30 19:32 51.51207 7.59471 625 ft 115 kts 54°
2026-04-30 19:33 51.51573 7.60495 473 ft 98 kts 56°
2026-04-30 19:33 51.51844 7.61252 422 ft 98 kts 55°
2026-04-30 19:33 51.52074 7.62690 703 ft 161 kts 95°
2026-04-30 19:33 51.51859 7.64561 1250 ft 184 kts 97°
2026-04-30 19:34 51.51205 7.65091 1455 ft 205 kts 244°
2026-04-30 19:34 51.50470 7.62925 1268 ft 231 kts 246°
2026-04-30 19:34 51.49133 7.58160 1269 ft 235 kts 255°
2026-04-30 19:35 51.48694 7.55633 1213 ft 232 kts 284°
2026-04-30 19:35 51.49872 7.54243 1166 ft 206 kts 20°
2026-04-30 19:35 51.50237 7.56434 955 ft 204 kts 73°
2026-04-30 19:35 51.50844 7.58453 800 ft 202 kts 58°
2026-04-30 19:36 51.51421 7.60319 1034 ft 176 kts 71°
2026-04-30 19:36 51.51023 7.62225 1346 ft 217 kts 158°
2026-04-30 19:36 51.48966 7.59508 1321 ft 232 kts 249°
2026-04-30 19:37 51.48310 7.57145 1334 ft 237 kts 252°
2026-04-30 19:37 51.47871 7.54643 1582 ft 228 kts 264°
2026-04-30 19:37 51.47885 7.52199 1882 ft 212 kts 284°
2026-04-30 19:37 51.48063 7.52040 1673 ft 177 kts 209°
2026-04-30 19:38 51.48177 7.52092 1613 ft 171 kts 143°
2026-04-30 19:38 51.48159 7.51843 1766 ft 158 kts 81°
2026-04-30 19:38 51.48081 7.51775 1485 ft 170 kts 36°
2026-04-30 19:38 51.47392 7.52759 1469 ft 204 kts 185°
2026-04-30 19:39 51.47413 7.52379 1564 ft 197 kts 246°
2026-04-30 19:39 51.46448 7.53218 1476 ft 224 kts 111°
2026-04-30 19:39 51.46862 7.54430 1260 ft 205 kts 329°
2026-04-30 19:39 51.46731 7.52836 1883 ft 200 kts 107°
2026-04-30 19:40 51.47841 7.53689 1619 ft 214 kts 332°
2026-04-30 19:40 51.47958 7.52751 1813 ft 205 kts 43°
2026-04-30 19:40 51.48185 7.51689 1631 ft 235 kts 168°
2026-04-30 19:40 51.48534 7.52993 1942 ft 208 kts 336°
2026-04-30 19:41 51.48102 7.51915 1839 ft 225 kts 112°
2026-04-30 19:41 51.48167 7.52809 1529 ft 208 kts 83°
2026-04-30 19:41 51.48652 7.52452 1400 ft 226 kts 245°
2026-04-30 19:41 51.47225 7.51743 1511 ft 235 kts 151°
2026-04-30 19:42 51.46240 7.53822 1252 ft 242 kts 107°
2026-04-30 19:42 51.47201 7.54028 1264 ft 206 kts 336°
2026-04-30 19:42 51.48573 7.53243 1429 ft 207 kts
2026-04-30 19:42 51.49533 7.54697 1442 ft 224 kts 64°
2026-04-30 19:43 51.50147 7.56597 1085 ft 142 kts 58°
2026-04-30 19:43 51.50504 7.57523 853 ft 72 kts 50°
2026-04-30 19:43 51.50756 7.58173 705 ft 66 kts 50°
2026-04-30 19:44 51.51212 7.59468 606 ft 67 kts 51°
2026-04-30 19:44 51.51441 7.60113 503 ft 67 kts 52°
2026-04-30 19:44 51.51670 7.60764 415 ft 62 kts 53°
2026-04-30 19:44 51.51863 7.61308 416 ft 65 kts 53°
2026-04-30 19:45 51.52125 7.62054 464 ft 85 kts 52°
2026-04-30 19:45 51.52350 7.62993 576 ft 106 kts 115°
2026-04-30 19:45 51.51745 7.63625 814 ft 109 kts 142°
2026-04-30 19:45 51.50994 7.63871 835 ft 129 kts 227°
2026-04-30 19:46 51.50474 7.62753 1002 ft 129 kts 249°
2026-04-30 19:46 51.50048 7.61403 960 ft 144 kts 252°
2026-04-30 19:46 51.49650 7.59896 903 ft 151 kts 258°
2026-04-30 19:46 51.49466 7.58819 948 ft 151 kts 263°
2026-04-30 19:47 51.50105 7.57115 871 ft 156 kts 333°
2026-04-30 19:47 51.50575 7.57608 825 ft 155 kts 63°
2026-04-30 19:47 51.51069 7.59073 665 ft 143 kts 55°
2026-04-30 19:47 51.51539 7.60396 463 ft 89 kts 53°
2026-04-30 19:48 51.51889 7.61383 423 ft 100 kts 53°
2026-04-30 19:48 51.52102 7.61986 435 ft 86 kts 54°
2026-04-30 19:48 51.52277 7.63211 1025 ft 136 kts 113°
2026-04-30 19:48 51.51361 7.64422 1163 ft 203 kts 152°
2026-04-30 19:49 51.50457 7.63032 1015 ft 222 kts 256°
2026-04-30 19:49 51.48989 7.58511 1092 ft 234 kts 254°
2026-04-30 19:49 51.48569 7.56016 1354 ft 218 kts 265°
2026-04-30 19:50 51.47806 7.54478 1753 ft 221 kts 131°
2026-04-30 19:50 51.48328 7.55235 1547 ft 223 kts 200°
2026-04-30 19:50 51.47998 7.55462 1439 ft 209 kts 84°
2026-04-30 19:50 51.48034 7.55490 1225 ft 210 kts 71°
2026-04-30 19:51 51.48713 7.54902 1557 ft 208 kts 216°
2026-04-30 19:51 51.48795 7.56084 1858 ft 188 kts 336°
2026-04-30 19:51 51.48820 7.56130 1788 ft 185 kts 353°
2026-04-30 19:51 51.48631 7.55970 1553 ft 212 kts 47°
2026-04-30 19:52 51.49999 7.57042 1130 ft 231 kts 25°
2026-04-30 19:52 51.50660 7.58499 967 ft 173 kts 127°
2026-04-30 19:52 51.49777 7.60103 1294 ft 209 kts 133°
2026-04-30 19:52 51.49049 7.59401 1369 ft 215 kts 275°
2026-04-30 19:53 51.48889 7.57056 1529 ft 227 kts 189°
2026-04-30 19:53 51.49095 7.58528 1711 ft 158 kts 345°
2026-04-30 19:53 51.49201 7.57244 1792 ft 138 kts 201°
2026-04-30 19:53 51.48844 7.57934 1277 ft 88 kts 34°
2026-04-30 19:54 51.49391 7.57695 1064 ft 128 kts 274°
2026-04-30 19:54 51.49130 7.56300 1116 ft 143 kts 248°
2026-04-30 19:54 51.48583 7.56645 1502 ft 132 kts 71°
2026-04-30 19:54 51.49059 7.56141 1586 ft 139 kts 280°
2026-04-30 19:55 51.49120 7.54605 1399 ft 135 kts 277°
2026-04-30 19:55 51.49030 7.55175 1385 ft 117 kts 10°
2026-04-30 19:55 51.49654 7.54820 923 ft 92 kts 18°
2026-04-30 19:55 51.50082 7.56324 893 ft 175 kts 63°
2026-04-30 19:56 51.50442 7.57471 814 ft 73 kts 52°
2026-04-30 19:56 51.50777 7.58274 718 ft 78 kts 51°
2026-04-30 19:56 51.50997 7.58887 757 ft 61 kts 49°
2026-04-30 19:56 51.51199 7.59482 739 ft 76 kts 71°
2026-04-30 19:57 51.50837 7.60632 961 ft 160 kts 139°
2026-04-30 19:57 51.49815 7.60703 961 ft 172 kts 238°
2026-04-30 19:57 51.49114 7.59062 985 ft 189 kts 250°
2026-04-30 19:57 51.50005 7.58048 901 ft 180 kts 344°
2026-04-30 19:58 51.50810 7.58480 776 ft 98 kts 50°
2026-04-30 19:58 51.51113 7.59226 635 ft 78 kts 50°
2026-04-30 19:58 51.51428 7.60059 547 ft 90 kts 54°
2026-04-30 19:58 51.51801 7.61128 431 ft 150 kts 58°
2026-04-30 19:59 51.52347 7.62862 620 ft 184 kts 91°
2026-04-30 19:59 51.51255 7.64047 1411 ft 204 kts 159°
2026-04-30 19:59 51.50070 7.63324 1568 ft 212 kts 235°
2026-04-30 20:00 51.49308 7.63563 1437 ft 139 kts 70°
2026-04-30 20:00 51.50168 7.63668 1285 ft 152 kts 297°
2026-04-30 20:00 51.49565 7.62663 1454 ft 191 kts 115°
2026-04-30 20:00 51.49070 7.64351 1579 ft 142 kts 111°
2026-04-30 20:01 51.48183 7.68382 1469 ft 223 kts 102°
2026-04-30 20:01 51.47323 7.70334 1446 ft 239 kts 158°
2026-04-30 20:01 51.45738 7.71325 1331 ft 250 kts 161°
2026-04-30 20:02 51.43781 7.70230 504 ft 64 kts 231°